createdAt,value
2024-03-03T00:01:23.810Z,99431.72
2024-03-03T00:03:51.473Z,99435.16
2024-03-03T00:06:19.089Z,99444.56
2024-03-03T00:08:46.594Z,99450.66
2024-03-03T00:11:14.266Z,99457.56
2024-03-03T00:13:42.063Z,99456.72
2024-03-03T00:16:09.742Z,99471.28
2024-03-03T00:18:40.167Z,99466.19
2024-03-03T00:21:17.050Z,99469.53
2024-03-03T00:23:44.776Z,99462.66
2024-03-03T00:26:12.296Z,99470.38
2024-03-03T00:28:39.804Z,99464.31
2024-03-03T00:31:07.225Z,99462.53
2024-03-03T00:33:34.852Z,99472.03
2024-03-03T00:36:06.809Z,99461.72
2024-03-03T00:38:35.861Z,99469.44
2024-03-03T00:41:06.051Z,99474.53
2024-03-03T00:43:33.744Z,99471.97
2024-03-03T00:46:01.429Z,99470.22
2024-03-03T00:48:29.328Z,99469.47
2024-03-03T00:50:56.914Z,99463.31
2024-03-03T00:53:24.531Z,99480.53
2024-03-03T00:55:53.177Z,99472.78
2024-03-03T00:58:22.075Z,99474.50
2024-03-03T01:00:49.743Z,99467.53
2024-03-03T01:03:17.418Z,99472.69
2024-03-03T01:05:45.578Z,99476.91
2024-03-03T01:08:13.216Z,99482.88
2024-03-03T01:10:41.727Z,99478.56
2024-03-03T01:13:09.297Z,99482.03
2024-03-03T01:15:36.950Z,99479.41
2024-03-03T01:18:05.267Z,99484.53
2024-03-03T01:20:32.874Z,99478.50
2024-03-03T01:23:00.499Z,99475.13
2024-03-03T01:25:30.279Z,99475.91
2024-03-03T01:27:57.965Z,99472.34
2024-03-03T01:30:25.953Z,99475.78
2024-03-03T01:32:53.496Z,99477.50
2024-03-03T01:35:20.832Z,99483.56
2024-03-03T01:37:48.275Z,99479.22
2024-03-03T01:40:15.753Z,99476.53
2024-03-03T01:42:43.395Z,99479.91
2024-03-03T01:45:23.990Z,99486.84
2024-03-03T01:47:53.367Z,99485.78
2024-03-03T01:50:21.933Z,99488.28
2024-03-03T01:52:52.044Z,99485.63
2024-03-03T01:55:22.924Z,99488.16
2024-03-03T01:57:54.377Z,99493.31
2024-03-03T02:00:22.876Z,99493.31
2024-03-03T02:02:51.023Z,99485.56
2024-03-03T02:05:20.014Z,99486.38
2024-03-03T02:07:48.107Z,99489.88
2024-03-03T02:10:17.228Z,99491.69
2024-03-03T02:12:48.056Z,99492.41
2024-03-03T02:15:18.378Z,99491.44
2024-03-03T02:17:46.037Z,99495.69
2024-03-03T02:20:13.633Z,99491.41
2024-03-03T02:22:41.162Z,99492.25
2024-03-03T02:25:09.607Z,99494.72
2024-03-03T02:27:38.357Z,99495.56
2024-03-03T02:30:06.548Z,99496.34
2024-03-03T02:32:34.281Z,99501.41
2024-03-03T02:35:01.865Z,99509.25
2024-03-03T02:37:29.570Z,99513.53
2024-03-03T02:39:57.271Z,99517.81
2024-03-03T02:42:24.823Z,99530.72
2024-03-03T02:44:52.392Z,99533.34
2024-03-03T02:47:19.863Z,99532.44
2024-03-03T02:49:47.316Z,99539.28
2024-03-03T02:52:14.827Z,99537.50
2024-03-03T02:54:42.668Z,99536.59
2024-03-03T02:57:10.264Z,99533.13
2024-03-03T02:59:37.838Z,99539.16
2024-03-03T03:02:05.910Z,99538.25
2024-03-03T03:04:33.625Z,99538.28
2024-03-03T03:07:01.179Z,99545.09
2024-03-03T03:09:28.771Z,99545.06
2024-03-03T03:11:56.246Z,99545.91
2024-03-03T03:14:25.465Z,99544.22
2024-03-03T03:16:53.048Z,99542.47
2024-03-03T03:19:20.986Z,99537.25
2024-03-03T03:21:49.052Z,99534.69
2024-03-03T03:24:16.544Z,99538.13
2024-03-03T03:26:43.945Z,99533.84
2024-03-03T03:29:11.302Z,99533.78
2024-03-03T03:31:38.649Z,99533.69
2024-03-03T03:34:06.302Z,99543.94
2024-03-03T03:36:33.862Z,99543.06
2024-03-03T03:39:02.709Z,99529.22
2024-03-03T03:41:30.476Z,99531.78
2024-03-03T03:43:57.994Z,99537.69
2024-03-03T03:46:25.583Z,99539.34
2024-03-03T03:48:53.616Z,99535.06
2024-03-03T03:51:21.124Z,99544.56
2024-03-03T03:53:48.448Z,99547.13
2024-03-03T03:56:15.860Z,99552.38
2024-03-03T03:58:43.543Z,99548.94
2024-03-03T04:01:23.819Z,99552.41
2024-03-03T04:03:51.400Z,99566.03
2024-03-03T04:06:18.726Z,99559.91
2024-03-03T04:08:46.241Z,99563.19
2024-03-03T04:11:13.772Z,99570.94
2024-03-03T04:13:41.401Z,99575.31
2024-03-03T04:16:09.109Z,99584.00
2024-03-03T04:18:37.354Z,99582.91
2024-03-03T04:21:05.272Z,99581.22
2024-03-03T04:23:33.465Z,99583.75
2024-03-03T04:26:06.502Z,99582.81
2024-03-03T04:28:35.705Z,99574.25
2024-03-03T04:31:09.521Z,99573.38
2024-03-03T04:33:37.681Z,99578.53
2024-03-03T04:36:12.968Z,99578.56
2024-03-03T04:38:43.607Z,99583.56
2024-03-03T04:41:19.098Z,99581.78
2024-03-03T04:43:47.444Z,99587.78
2024-03-03T04:46:15.233Z,99592.13
2024-03-03T04:48:43.121Z,99598.06
2024-03-03T04:51:10.663Z,99611.94
2024-03-03T04:53:38.244Z,99604.13
2024-03-03T04:56:05.754Z,99618.59
2024-03-03T04:58:33.533Z,99621.22
2024-03-03T05:01:01.079Z,99616.84
2024-03-03T05:03:28.672Z,99621.13
2024-03-03T05:05:55.932Z,99619.41
2024-03-03T05:08:23.265Z,99618.59
2024-03-03T05:10:52.191Z,99624.75
2024-03-03T05:13:19.939Z,99622.00
2024-03-03T05:15:47.601Z,99631.34
2024-03-03T05:18:16.144Z,99637.41
2024-03-03T05:20:43.653Z,99645.13
2024-03-03T05:23:11.186Z,99643.41
2024-03-03T05:25:38.509Z,99651.09
2024-03-03T05:28:06.261Z,99651.84
2024-03-03T05:30:38.220Z,99647.38
2024-03-03T05:33:08.019Z,99652.53
2024-03-03T05:35:38.012Z,99650.88
2024-03-03T05:38:05.902Z,99658.59
2024-03-03T05:40:33.477Z,99661.97
2024-03-03T05:43:01.574Z,99656.75
2024-03-03T05:45:29.245Z,99657.56
2024-03-03T05:47:57.003Z,99657.53
2024-03-03T05:50:24.539Z,99672.19
2024-03-03T05:52:51.960Z,99667.84
2024-03-03T05:55:19.432Z,99665.25
2024-03-03T05:57:48.295Z,99679.13
2024-03-03T06:00:17.305Z,99688.63
2024-03-03T06:02:45.042Z,99684.25
2024-03-03T06:05:12.585Z,99687.75
2024-03-03T06:07:40.152Z,99688.50
2024-03-03T06:10:08.854Z,99704.88
2024-03-03T06:12:36.473Z,99708.25
2024-03-03T06:15:04.084Z,99704.78
2024-03-03T06:17:31.616Z,99706.53
2024-03-03T06:19:59.124Z,99714.34
2024-03-03T06:22:26.569Z,99707.44
2024-03-03T06:24:54.045Z,99714.25
2024-03-03T06:27:21.545Z,99715.13
2024-03-03T06:29:49.112Z,99713.31
2024-03-03T06:32:16.529Z,99715.03
2024-03-03T06:34:48.414Z,99715.66
2024-03-03T06:37:16.820Z,99718.97
2024-03-03T06:39:45.686Z,99717.13
2024-03-03T06:42:13.302Z,99723.13
2024-03-03T06:44:41.306Z,99727.44
2024-03-03T06:47:09.058Z,99727.50
2024-03-03T06:49:36.637Z,99734.41
2024-03-03T06:52:04.741Z,99731.91
2024-03-03T06:54:32.190Z,99740.50
2024-03-03T06:56:59.589Z,99744.00
2024-03-03T06:59:28.559Z,99745.75
2024-03-03T07:01:56.242Z,99750.94
2024-03-03T07:04:26.991Z,99753.56
2024-03-03T07:06:55.891Z,99750.94
2024-03-03T07:09:24.575Z,99761.50
2024-03-03T07:11:56.235Z,99765.34
2024-03-03T07:14:25.088Z,99768.94
2024-03-03T07:16:52.931Z,99766.13
2024-03-03T07:19:20.581Z,99778.50
2024-03-03T07:21:48.129Z,99771.53
2024-03-03T07:24:16.323Z,99791.88
2024-03-03T07:26:43.869Z,99792.13
2024-03-03T07:29:11.584Z,99780.09
2024-03-03T07:31:39.049Z,99789.59
2024-03-03T07:34:06.659Z,99793.81
2024-03-03T07:36:34.296Z,99785.81
2024-03-03T07:39:03.258Z,99789.88
2024-03-03T07:41:30.744Z,99794.69
2024-03-03T07:43:58.248Z,99786.31
2024-03-03T07:46:25.759Z,99786.56
2024-03-03T07:48:53.515Z,99802.50
2024-03-03T07:51:23.233Z,99803.56
2024-03-03T07:53:50.958Z,99810.78
2024-03-03T07:56:18.524Z,99807.47
2024-03-03T07:58:46.074Z,99812.72
2024-03-03T08:01:13.785Z,99806.97
2024-03-03T08:03:41.479Z,99811.59
2024-03-03T08:06:12.192Z,99812.91
2024-03-03T08:08:39.677Z,99811.72
2024-03-03T08:11:07.138Z,99813.94
2024-03-03T08:13:34.718Z,99814.13
2024-03-03T08:16:02.194Z,99812.72
2024-03-03T08:18:29.920Z,99820.06
2024-03-03T08:21:04.504Z,99829.59
2024-03-03T08:23:35.418Z,99835.00
2024-03-03T08:26:02.940Z,99836.84
2024-03-03T08:28:30.554Z,99841.34
2024-03-03T08:30:58.004Z,99841.97
2024-03-03T08:33:25.551Z,99857.56
2024-03-03T08:35:53.039Z,99857.72
2024-03-03T08:38:20.656Z,99853.78
2024-03-03T08:40:48.130Z,99851.66
2024-03-03T08:43:15.732Z,99854.97
2024-03-03T08:45:43.493Z,99855.41
2024-03-03T08:48:11.080Z,99855.41
2024-03-03T08:50:38.705Z,99855.63
2024-03-03T08:53:07.221Z,99856.03
2024-03-03T08:55:35.189Z,99860.41
2024-03-03T08:58:02.865Z,99861.16
2024-03-03T09:00:30.340Z,99867.78
2024-03-03T09:02:58.064Z,99863.25
2024-03-03T09:05:25.716Z,99873.66
2024-03-03T09:07:54.811Z,99876.66
2024-03-03T09:10:22.345Z,99879.78
2024-03-03T09:12:49.839Z,99882.84
2024-03-03T09:15:17.329Z,99882.91
2024-03-03T09:17:45.412Z,99879.00
2024-03-03T09:20:13.373Z,99885.72
2024-03-03T09:22:41.022Z,99887.91
2024-03-03T09:25:09.027Z,99887.06
2024-03-03T09:27:37.018Z,99892.94
2024-03-03T09:30:07.420Z,99900.69
2024-03-03T09:32:36.842Z,99902.56
2024-03-03T09:35:05.225Z,99915.22
2024-03-03T09:37:32.978Z,99918.69
2024-03-03T09:40:00.483Z,99919.22
2024-03-03T09:42:28.149Z,99915.66
2024-03-03T09:44:59.311Z,99924.19
2024-03-03T09:47:29.631Z,99918.41
2024-03-03T09:49:57.902Z,99919.22
2024-03-03T09:52:27.370Z,99927.88
2024-03-03T09:54:54.952Z,99931.06
2024-03-03T09:57:23.315Z,99928.31
2024-03-03T09:59:54.051Z,99934.97
2024-03-03T10:02:26.057Z,99942.41
2024-03-03T10:04:56.535Z,99938.59
2024-03-03T10:07:24.845Z,99936.13
2024-03-03T10:10:07.236Z,99949.84
2024-03-03T10:12:35.079Z,99951.78
2024-03-03T10:15:05.978Z,99953.06
2024-03-03T10:17:33.639Z,99953.66
2024-03-03T10:20:07.305Z,99948.63
2024-03-03T10:22:41.776Z,99963.34
2024-03-03T10:25:16.611Z,99971.91
2024-03-03T10:27:46.774Z,99966.88
2024-03-03T10:30:19.220Z,99968.78
2024-03-03T10:32:48.817Z,99967.19
2024-03-03T10:35:17.744Z,99969.63
2024-03-03T10:38:03.291Z,99976.16
2024-03-03T10:40:34.772Z,99974.44
2024-03-03T10:43:02.374Z,99981.91
2024-03-03T10:45:30.979Z,99985.13
2024-03-03T10:47:58.907Z,99987.28
2024-03-03T10:50:26.898Z,99992.31
2024-03-03T10:52:54.600Z,99993.63
2024-03-03T10:55:25.846Z,100002.31
2024-03-03T10:57:55.256Z,100003.72
2024-03-03T11:00:26.430Z,100005.84
2024-03-03T11:02:56.290Z,100005.44
2024-03-03T11:05:24.626Z,100015.03
2024-03-03T11:07:52.346Z,100010.09
2024-03-03T11:10:21.046Z,100007.06
2024-03-03T11:12:51.779Z,100010.13
2024-03-03T11:15:21.686Z,100007.41
2024-03-03T11:18:13.763Z,100005.41
2024-03-03T11:20:47.002Z,100017.13
2024-03-03T11:23:21.950Z,100011.38
2024-03-03T11:26:18.785Z,100026.63
2024-03-03T11:28:49.890Z,100017.28
2024-03-03T11:31:17.640Z,100032.38
2024-03-03T11:33:45.832Z,100022.44
2024-03-03T11:36:13.875Z,100025.72
2024-03-03T11:38:43.832Z,100031.53
2024-03-03T11:41:14.513Z,100025.94
2024-03-03T11:43:43.063Z,100032.13
2024-03-03T11:46:11.260Z,100028.34
2024-03-03T11:48:42.889Z,100023.25
2024-03-03T11:51:27.355Z,100022.81
2024-03-03T11:54:08.555Z,100018.38
2024-03-03T11:56:47.029Z,100018.03
2024-03-03T11:59:15.432Z,100021.16
2024-03-03T12:01:50.621Z,100028.81
2024-03-03T12:04:18.402Z,100035.03
2024-03-03T12:06:47.565Z,100034.69
2024-03-03T12:09:18.370Z,100031.63
2024-03-03T12:11:49.454Z,100033.00
2024-03-03T12:14:17.396Z,100040.91
2024-03-03T12:16:44.881Z,100038.69
2024-03-03T12:19:14.868Z,100024.84
2024-03-03T12:21:43.092Z,100040.81
2024-03-03T12:24:14.867Z,100031.16
2024-03-03T12:26:42.478Z,100031.41
2024-03-03T12:29:10.411Z,100036.97
2024-03-03T12:31:38.005Z,100045.97
2024-03-03T12:34:05.844Z,100040.31
2024-03-03T12:36:33.479Z,100054.09
2024-03-03T12:39:01.297Z,100058.44
2024-03-03T12:41:29.228Z,100056.09
2024-03-03T12:44:07.792Z,100061.75
2024-03-03T12:46:41.420Z,100064.78
2024-03-03T12:49:09.274Z,100070.13
2024-03-03T12:51:37.357Z,100069.34
2024-03-03T12:54:05.538Z,100073.00
2024-03-03T12:56:32.958Z,100079.38
2024-03-03T12:59:01.543Z,100088.34
2024-03-03T13:01:29.633Z,100084.31
2024-03-03T13:03:57.975Z,100096.22
2024-03-03T13:06:32.890Z,100093.75
2024-03-03T13:09:10.991Z,100094.81
2024-03-03T13:11:40.929Z,100094.06
2024-03-03T13:14:15.404Z,100105.44
2024-03-03T13:16:45.655Z,100109.66
2024-03-03T13:19:15.906Z,100120.16
2024-03-03T13:21:49.860Z,100106.53
2024-03-03T13:24:20.254Z,100104.94
2024-03-03T13:26:47.856Z,100101.38
2024-03-03T13:29:15.333Z,100089.81
2024-03-03T13:31:42.914Z,100095.66
2024-03-03T13:34:10.623Z,100092.81
2024-03-03T13:36:38.557Z,100093.56
2024-03-03T13:39:11.391Z,100091.75
2024-03-03T13:41:39.676Z,100085.56
2024-03-03T13:44:08.210Z,100095.94
2024-03-03T13:46:35.760Z,100097.63
2024-03-03T13:49:03.870Z,100099.38
2024-03-03T13:51:31.685Z,100100.97
2024-03-03T13:53:59.088Z,100099.25
2024-03-03T13:56:27.069Z,100108.19
2024-03-03T13:58:54.516Z,100101.22
2024-03-03T14:01:22.147Z,100112.59
2024-03-03T14:03:49.575Z,100114.28
2024-03-03T14:06:17.045Z,100123.16
2024-03-03T14:08:44.670Z,100138.19
2024-03-03T14:11:12.363Z,100141.00
2024-03-03T14:13:39.786Z,100146.28
2024-03-03T14:16:08.190Z,100146.97
2024-03-03T14:18:36.067Z,100146.94
2024-03-03T14:21:03.716Z,100144.34
2024-03-03T14:23:31.608Z,100148.81
2024-03-03T14:25:59.033Z,100151.47
2024-03-03T14:28:26.413Z,100153.19
2024-03-03T14:30:53.884Z,100152.31
2024-03-03T14:33:21.350Z,100152.41
2024-03-03T14:35:48.899Z,100161.28
2024-03-03T14:38:19.117Z,100162.19
2024-03-03T14:40:47.249Z,100158.72
2024-03-03T14:43:14.661Z,100156.09
2024-03-03T14:45:42.209Z,100164.75
2024-03-03T14:48:09.755Z,100168.22
2024-03-03T14:50:37.210Z,100169.91
2024-03-03T14:53:05.282Z,100176.91
2024-03-03T14:55:32.985Z,100179.56
2024-03-03T14:58:00.712Z,100176.97
2024-03-03T15:00:29.324Z,100182.19
2024-03-03T15:02:56.818Z,100186.69
2024-03-03T15:05:24.312Z,100183.13
2024-03-03T15:07:52.475Z,100186.66
2024-03-03T15:10:20.766Z,100186.69
2024-03-03T15:12:48.582Z,100196.31
2024-03-03T15:15:16.240Z,100197.19
2024-03-03T15:17:44.593Z,100205.91
2024-03-03T15:20:14.937Z,100212.06
2024-03-03T15:22:42.548Z,100217.22
2024-03-03T15:25:10.374Z,100223.31
2024-03-03T15:27:38.513Z,100224.19
2024-03-03T15:30:07.004Z,100224.97
2024-03-03T15:32:34.932Z,100224.97
2024-03-03T15:35:02.707Z,100231.91
2024-03-03T15:37:34.887Z,100237.09
2024-03-03T15:40:04.480Z,100238.88
2024-03-03T15:42:31.904Z,100241.53
2024-03-03T15:44:59.320Z,100238.78
2024-03-03T15:47:27.008Z,100238.88
2024-03-03T15:49:54.554Z,100242.56
2024-03-03T15:52:22.277Z,100248.75
2024-03-03T15:54:49.841Z,100245.25
2024-03-03T15:57:17.928Z,100243.44
2024-03-03T15:59:45.314Z,100250.41
2024-03-03T16:02:12.695Z,100250.34
2024-03-03T16:04:41.639Z,100250.50
2024-03-03T16:07:09.214Z,100260.09
2024-03-03T16:09:36.793Z,100263.69
2024-03-03T16:12:04.881Z,100268.19
2024-03-03T16:14:33.618Z,100258.59
2024-03-03T16:17:01.300Z,100269.94
2024-03-03T16:19:29.017Z,100269.94
2024-03-03T16:21:56.679Z,100272.59
2024-03-03T16:24:24.250Z,100278.66
2024-03-03T16:26:51.898Z,100287.41
2024-03-03T16:29:19.424Z,100276.19
2024-03-03T16:31:47.702Z,100286.75
2024-03-03T16:34:15.325Z,100282.41
2024-03-03T16:36:43.818Z,100287.56
2024-03-03T16:39:11.389Z,100291.94
2024-03-03T16:41:38.901Z,100297.16
2024-03-03T16:44:06.396Z,100296.31
2024-03-03T16:46:34.008Z,100300.72
2024-03-03T16:49:02.456Z,100294.66
2024-03-03T16:51:30.068Z,100300.78
2024-03-03T16:53:57.595Z,100302.53
2024-03-03T16:56:25.098Z,100308.63
2024-03-03T16:58:53.099Z,100311.25
2024-03-03T17:01:20.946Z,100313.00
2024-03-03T17:03:48.546Z,100314.75
2024-03-03T17:06:16.829Z,100316.50
2024-03-03T17:08:44.419Z,100313.88
2024-03-03T17:11:11.920Z,100312.16
2024-03-03T17:13:39.557Z,100331.31
2024-03-03T17:16:07.984Z,100333.91
2024-03-03T17:18:35.863Z,100334.78
2024-03-03T17:21:06.080Z,100336.53
2024-03-03T17:23:33.664Z,100338.25
2024-03-03T17:26:01.130Z,100340.00
2024-03-03T17:28:28.681Z,100347.84
2024-03-03T17:30:56.313Z,100352.16
2024-03-03T17:33:23.985Z,100349.53
2024-03-03T17:35:51.461Z,100351.22
2024-03-03T17:38:19.771Z,100359.94
2024-03-03T17:40:47.307Z,100357.25
2024-03-03T17:43:14.946Z,100366.78
2024-03-03T17:45:43.121Z,100362.38
2024-03-03T17:48:10.785Z,100365.78
2024-03-03T17:50:38.662Z,100373.56
2024-03-03T17:53:06.166Z,100379.56
2024-03-03T17:55:33.928Z,100387.34
2024-03-03T17:58:01.652Z,100401.22
2024-03-03T18:00:29.201Z,100395.13
2024-03-03T18:02:57.684Z,100403.75
2024-03-03T18:05:25.416Z,100410.66
2024-03-03T18:07:53.304Z,100410.66
2024-03-03T18:10:20.816Z,100417.63
2024-03-03T18:12:48.600Z,100423.66
2024-03-03T18:15:16.161Z,100415.75
2024-03-03T18:17:43.776Z,100424.38
2024-03-03T18:20:11.684Z,100427.84
2024-03-03T18:22:39.265Z,100429.59
2024-03-03T18:25:07.130Z,100428.69
2024-03-03T18:27:34.732Z,100428.66
2024-03-03T18:30:02.424Z,100432.97
2024-03-03T18:32:31.410Z,100431.19
2024-03-03T18:35:00.536Z,100435.69
2024-03-03T18:37:28.660Z,100442.66
2024-03-03T18:39:57.075Z,100444.41
2024-03-03T18:42:26.074Z,100446.06
2024-03-03T18:44:56.384Z,100451.09
2024-03-03T18:47:23.956Z,100460.56
2024-03-03T18:49:51.726Z,100472.56
2024-03-03T18:52:19.300Z,100485.53
2024-03-03T18:54:52.850Z,100485.44
2024-03-03T18:57:20.563Z,100487.94
2024-03-03T18:59:48.097Z,100499.13
2024-03-03T19:02:15.769Z,100495.59
2024-03-03T19:04:43.362Z,100498.88
2024-03-03T19:07:11.946Z,100505.72
2024-03-03T19:09:41.915Z,100502.22
2024-03-03T19:12:10.050Z,100504.75
2024-03-03T19:14:37.544Z,100496.94
2024-03-03T19:17:05.302Z,100501.25
2024-03-03T19:19:33.007Z,100505.56
2024-03-03T19:22:01.566Z,100506.38
2024-03-03T19:24:30.241Z,100512.38
2024-03-03T19:26:57.852Z,100510.63
2024-03-03T19:29:26.435Z,100514.81
2024-03-03T19:31:54.065Z,100527.69
2024-03-03T19:34:22.818Z,100534.44
2024-03-03T19:36:50.464Z,100533.59
2024-03-03T19:39:17.939Z,100538.81
2024-03-03T19:41:45.499Z,100538.69
2024-03-03T19:44:14.091Z,100547.25
2024-03-03T19:46:42.869Z,100544.69
2024-03-03T19:49:12.472Z,100548.22
2024-03-03T19:51:40.042Z,100548.22
2024-03-03T19:54:07.522Z,100558.81
2024-03-03T19:56:35.193Z,100557.09
2024-03-03T19:59:02.888Z,100561.44
2024-03-03T20:01:30.445Z,100557.06
2024-03-03T20:03:58.434Z,100562.16
2024-03-03T20:06:26.052Z,100563.72
2024-03-03T20:08:53.703Z,100571.47
2024-03-03T20:11:21.249Z,100573.13
2024-03-03T20:13:48.845Z,100578.19
2024-03-03T20:16:16.561Z,100579.81
2024-03-03T20:18:47.358Z,100577.22
2024-03-03T20:21:14.850Z,100578.03
2024-03-03T20:23:42.270Z,100584.03
2024-03-03T20:26:09.970Z,100578.00
2024-03-03T20:28:37.540Z,100585.00
2024-03-03T20:31:05.337Z,100579.81
2024-03-03T20:33:32.886Z,100584.16
2024-03-03T20:36:00.566Z,100588.56
2024-03-03T20:38:28.063Z,100589.44
2024-03-03T20:40:55.643Z,100592.91
2024-03-03T20:43:23.207Z,100594.41
2024-03-03T20:45:51.274Z,100593.63
2024-03-03T20:48:19.868Z,100598.78
2024-03-03T20:50:47.546Z,100607.41
2024-03-03T20:53:16.532Z,100607.50
2024-03-03T20:55:45.119Z,100620.44
2024-03-03T20:58:12.729Z,100618.75
2024-03-03T21:00:40.315Z,100614.41
2024-03-03T21:03:07.823Z,100624.34
2024-03-03T21:05:35.394Z,100628.69
2024-03-03T21:08:02.948Z,100635.41
2024-03-03T21:10:30.732Z,100622.13
2024-03-03T21:12:58.869Z,100626.38
2024-03-03T21:15:26.365Z,100624.06
2024-03-03T21:17:53.820Z,100625.84
2024-03-03T21:20:21.357Z,100626.69
2024-03-03T21:22:48.856Z,100630.19
2024-03-03T21:25:16.672Z,100640.22
2024-03-03T21:27:44.263Z,100638.25
2024-03-03T21:30:12.185Z,100637.41
2024-03-03T21:32:39.777Z,100638.88
2024-03-03T21:35:07.591Z,100643.84
2024-03-03T21:37:35.650Z,100634.28
2024-03-03T21:40:04.745Z,100636.00
2024-03-03T21:42:32.279Z,100635.31
2024-03-03T21:44:59.881Z,100636.09
2024-03-03T21:47:27.564Z,100643.75
2024-03-03T21:49:55.042Z,100643.72
2024-03-03T21:52:22.410Z,100641.88
2024-03-03T21:54:49.952Z,100641.28
2024-03-03T21:57:17.992Z,100646.25
2024-03-03T21:59:45.488Z,100645.94
2024-03-03T22:02:12.882Z,100641.50
2024-03-03T22:04:40.595Z,100638.81
2024-03-03T22:07:08.751Z,100650.88
2024-03-03T22:09:36.376Z,100650.72
2024-03-03T22:12:04.123Z,100649.53
2024-03-03T22:14:31.651Z,100636.47
2024-03-03T22:16:59.104Z,100639.94
2024-03-03T22:19:27.630Z,100642.47
2024-03-03T22:21:55.360Z,100652.00
2024-03-03T22:24:23.090Z,100637.16
2024-03-03T22:26:50.532Z,100639.66
2024-03-03T22:29:18.980Z,100638.63
2024-03-03T22:31:46.528Z,100635.00
2024-03-03T22:34:14.264Z,100637.44
2024-03-03T22:36:41.920Z,100636.41
2024-03-03T22:39:09.454Z,100642.19
2024-03-03T22:41:37.025Z,100639.34
2024-03-03T22:44:05.049Z,100638.53
2024-03-03T22:46:32.902Z,100639.53
2024-03-03T22:49:00.677Z,100628.38
2024-03-03T22:51:28.227Z,100635.09
2024-03-03T22:53:55.809Z,100638.56
2024-03-03T22:56:23.377Z,100635.25
2024-03-03T22:58:53.505Z,100639.44
2024-03-03T23:01:21.492Z,100636.66
2024-03-03T23:03:49.073Z,100638.34
2024-03-03T23:06:16.397Z,100634.66
2024-03-03T23:08:43.716Z,100637.25
2024-03-03T23:11:11.824Z,100643.06
2024-03-03T23:13:39.350Z,100637.03
2024-03-03T23:16:07.668Z,100642.25
2024-03-03T23:18:35.242Z,100645.66
2024-03-03T23:21:02.736Z,100665.47
2024-03-03T23:23:30.337Z,100667.94
2024-03-03T23:25:58.094Z,100669.53
2024-03-03T23:28:26.791Z,100670.19
2024-03-03T23:30:54.481Z,100676.13
2024-03-03T23:33:22.024Z,100671.63
2024-03-03T23:35:49.523Z,100670.38
2024-03-03T23:38:17.371Z,100663.19
2024-03-03T23:40:45.119Z,100669.16
2024-03-03T23:43:13.192Z,100658.63
2024-03-03T23:45:40.691Z,100664.72
2024-03-03T23:48:08.272Z,100662.94
2024-03-03T23:50:35.877Z,100668.53
2024-03-03T23:53:03.626Z,100669.88
2024-03-03T23:55:31.235Z,100678.38
2024-03-03T23:57:58.822Z,100682.59
